sensor_id;sensor_type;location;lat;lon;timestamp;P1;durP1;ratioP1;P2;durP2;ratioP2
4375;SDS011;2202;50.866;12.750;2022-08-14T00:01:17;16.30;;;13.80;;
4375;SDS011;2202;50.866;12.750;2022-08-14T00:03:44;13.70;;;11.93;;
4375;SDS011;2202;50.866;12.750;2022-08-14T00:06:11;13.80;;;12.30;;
4375;SDS011;2202;50.866;12.750;2022-08-14T00:08:38;15.93;;;12.40;;
4375;SDS011;2202;50.866;12.750;2022-08-14T00:11:05;14.07;;;12.03;;
4375;SDS011;2202;50.866;12.750;2022-08-14T00:13:32;15.80;;;12.93;;
4375;SDS011;2202;50.866;12.750;2022-08-14T00:15:59;15.17;;;13.17;;
4375;SDS011;2202;50.866;12.750;2022-08-14T00:18:29;15.37;;;12.67;;
4375;SDS011;2202;50.866;12.750;2022-08-14T00:20:56;15.00;;;12.33;;
4375;SDS011;2202;50.866;12.750;2022-08-14T00:23:24;13.63;;;11.23;;
4375;SDS011;2202;50.866;12.750;2022-08-14T00:25:52;16.33;;;13.43;;
4375;SDS011;2202;50.866;12.750;2022-08-14T00:28:21;13.80;;;11.10;;
4375;SDS011;2202;50.866;12.750;2022-08-14T00:30:50;14.50;;;12.10;;
4375;SDS011;2202;50.866;12.750;2022-08-14T00:33:20;19.53;;;12.90;;
4375;SDS011;2202;50.866;12.750;2022-08-14T00:35:49;16.20;;;12.53;;
4375;SDS011;2202;50.866;12.750;2022-08-14T00:38:17;15.83;;;13.10;;
4375;SDS011;2202;50.866;12.750;2022-08-14T00:40:44;18.23;;;12.87;;
4375;SDS011;2202;50.866;12.750;2022-08-14T00:43:11;14.83;;;12.27;;
4375;SDS011;2202;50.866;12.750;2022-08-14T00:45:39;14.27;;;11.13;;
4375;SDS011;2202;50.866;12.750;2022-08-14T00:48:06;15.30;;;12.30;;
4375;SDS011;2202;50.866;12.750;2022-08-14T00:50:34;20.27;;;12.30;;
4375;SDS011;2202;50.866;12.750;2022-08-14T00:53:03;13.83;;;11.43;;
4375;SDS011;2202;50.866;12.750;2022-08-14T00:55:30;17.73;;;12.33;;
4375;SDS011;2202;50.866;12.750;2022-08-14T00:58:00;15.60;;;11.90;;
4375;SDS011;2202;50.866;12.750;2022-08-14T01:00:45;15.73;;;13.00;;
4375;SDS011;2202;50.866;12.750;2022-08-14T01:03:14;17.43;;;11.60;;
4375;SDS011;2202;50.866;12.750;2022-08-14T01:05:42;16.77;;;12.90;;
4375;SDS011;2202;50.866;12.750;2022-08-14T01:08:12;15.67;;;11.80;;
4375;SDS011;2202;50.866;12.750;2022-08-14T01:10:40;15.30;;;11.07;;
4375;SDS011;2202;50.866;12.750;2022-08-14T01:13:19;15.30;;;11.93;;
4375;SDS011;2202;50.866;12.750;2022-08-14T01:15:47;16.43;;;12.20;;
4375;SDS011;2202;50.866;12.750;2022-08-14T01:18:17;16.50;;;12.90;;
4375;SDS011;2202;50.866;12.750;2022-08-14T01:21:03;16.47;;;12.40;;
4375;SDS011;2202;50.866;12.750;2022-08-14T01:23:39;16.80;;;13.10;;
4375;SDS011;2202;50.866;12.750;2022-08-14T01:26:07;14.90;;;12.30;;
4375;SDS011;2202;50.866;12.750;2022-08-14T01:28:35;15.60;;;13.13;;
4375;SDS011;2202;50.866;12.750;2022-08-14T01:31:04;14.57;;;11.60;;
4375;SDS011;2202;50.866;12.750;2022-08-14T01:33:32;14.87;;;11.37;;
4375;SDS011;2202;50.866;12.750;2022-08-14T01:36:06;14.60;;;12.30;;
4375;SDS011;2202;50.866;12.750;2022-08-14T01:38:38;19.17;;;12.07;;
4375;SDS011;2202;50.866;12.750;2022-08-14T01:41:07;15.80;;;10.87;;
4375;SDS011;2202;50.866;12.750;2022-08-14T01:43:43;16.10;;;13.50;;
4375;SDS011;2202;50.866;12.750;2022-08-14T01:46:13;14.17;;;11.77;;
4375;SDS011;2202;50.866;12.750;2022-08-14T01:48:41;15.43;;;11.77;;
4375;SDS011;2202;50.866;12.750;2022-08-14T01:51:10;16.33;;;12.20;;
4375;SDS011;2202;50.866;12.750;2022-08-14T01:53:43;16.70;;;12.03;;
4375;SDS011;2202;50.866;12.750;2022-08-14T01:56:14;15.73;;;11.83;;
4375;SDS011;2202;50.866;12.750;2022-08-14T01:58:43;14.80;;;11.33;;
4375;SDS011;2202;50.866;12.750;2022-08-14T02:01:11;17.30;;;11.53;;
4375;SDS011;2202;50.866;12.750;2022-08-14T02:03:39;13.97;;;10.90;;
4375;SDS011;2202;50.866;12.750;2022-08-14T02:06:06;14.77;;;11.97;;
4375;SDS011;2202;50.866;12.750;2022-08-14T02:08:35;19.67;;;11.80;;
4375;SDS011;2202;50.866;12.750;2022-08-14T02:11:05;14.00;;;11.13;;
4375;SDS011;2202;50.866;12.750;2022-08-14T02:13:47;16.73;;;12.80;;
4375;SDS011;2202;50.866;12.750;2022-08-14T02:16:17;15.07;;;11.70;;
4375;SDS011;2202;50.866;12.750;2022-08-14T02:18:45;16.43;;;13.13;;
4375;SDS011;2202;50.866;12.750;2022-08-14T02:21:13;14.97;;;11.40;;
4375;SDS011;2202;50.866;12.750;2022-08-14T02:23:43;15.47;;;11.83;;
4375;SDS011;2202;50.866;12.750;2022-08-14T02:26:17;13.50;;;11.57;;
4375;SDS011;2202;50.866;12.750;2022-08-14T02:28:45;16.90;;;12.87;;
4375;SDS011;2202;50.866;12.750;2022-08-14T02:31:13;22.03;;;13.50;;
4375;SDS011;2202;50.866;12.750;2022-08-14T02:33:41;14.30;;;11.83;;
4375;SDS011;2202;50.866;12.750;2022-08-14T02:36:08;17.10;;;12.43;;
4375;SDS011;2202;50.866;12.750;2022-08-14T02:38:36;14.40;;;12.17;;
4375;SDS011;2202;50.866;12.750;2022-08-14T02:41:06;16.60;;;11.83;;
4375;SDS011;2202;50.866;12.750;2022-08-14T02:43:36;16.97;;;12.73;;
4375;SDS011;2202;50.866;12.750;2022-08-14T02:46:05;15.53;;;12.27;;
4375;SDS011;2202;50.866;12.750;2022-08-14T02:48:34;15.93;;;12.77;;
4375;SDS011;2202;50.866;12.750;2022-08-14T02:51:03;15.40;;;12.37;;
4375;SDS011;2202;50.866;12.750;2022-08-14T02:53:32;14.67;;;12.07;;
4375;SDS011;2202;50.866;12.750;2022-08-14T02:55:59;19.70;;;13.53;;
4375;SDS011;2202;50.866;12.750;2022-08-14T02:58:28;16.30;;;12.60;;
4375;SDS011;2202;50.866;12.750;2022-08-14T03:00:57;14.50;;;12.40;;
4375;SDS011;2202;50.866;12.750;2022-08-14T03:03:24;16.00;;;11.93;;
4375;SDS011;2202;50.866;12.750;2022-08-14T03:05:51;18.37;;;13.57;;
4375;SDS011;2202;50.866;12.750;2022-08-14T03:08:18;15.80;;;13.50;;
4375;SDS011;2202;50.866;12.750;2022-08-14T03:10:46;17.23;;;12.83;;
4375;SDS011;2202;50.866;12.750;2022-08-14T03:13:13;19.10;;;13.50;;
4375;SDS011;2202;50.866;12.750;2022-08-14T03:15:40;19.20;;;14.00;;
4375;SDS011;2202;50.866;12.750;2022-08-14T03:18:12;15.67;;;12.50;;
4375;SDS011;2202;50.866;12.750;2022-08-14T03:20:39;17.60;;;13.90;;
4375;SDS011;2202;50.866;12.750;2022-08-14T03:23:06;19.10;;;14.30;;
4375;SDS011;2202;50.866;12.750;2022-08-14T03:25:33;16.00;;;12.70;;
4375;SDS011;2202;50.866;12.750;2022-08-14T03:28:01;17.33;;;13.60;;
4375;SDS011;2202;50.866;12.750;2022-08-14T03:30:29;18.23;;;14.47;;
4375;SDS011;2202;50.866;12.750;2022-08-14T03:32:56;17.50;;;12.73;;
4375;SDS011;2202;50.866;12.750;2022-08-14T03:35:25;18.37;;;14.30;;
4375;SDS011;2202;50.866;12.750;2022-08-14T03:37:52;17.70;;;13.00;;
4375;SDS011;2202;50.866;12.750;2022-08-14T03:40:19;19.47;;;14.30;;
4375;SDS011;2202;50.866;12.750;2022-08-14T03:42:46;17.73;;;14.00;;
4375;SDS011;2202;50.866;12.750;2022-08-14T03:45:14;21.63;;;15.07;;
4375;SDS011;2202;50.866;12.750;2022-08-14T03:47:43;17.10;;;13.30;;
4375;SDS011;2202;50.866;12.750;2022-08-14T03:50:10;16.40;;;13.37;;
4375;SDS011;2202;50.866;12.750;2022-08-14T03:52:40;16.77;;;12.80;;
4375;SDS011;2202;50.866;12.750;2022-08-14T03:55:10;15.87;;;12.47;;
4375;SDS011;2202;50.866;12.750;2022-08-14T03:57:37;16.60;;;13.53;;
4375;SDS011;2202;50.866;12.750;2022-08-14T04:00:06;16.00;;;13.97;;
4375;SDS011;2202;50.866;12.750;2022-08-14T04:02:37;18.20;;;14.50;;
4375;SDS011;2202;50.866;12.750;2022-08-14T04:05:05;17.23;;;13.90;;
4375;SDS011;2202;50.866;12.750;2022-08-14T04:07:34;18.37;;;14.00;;
4375;SDS011;2202;50.866;12.750;2022-08-14T04:10:05;18.83;;;14.20;;
4375;SDS011;2202;50.866;12.750;2022-08-14T04:12:32;22.87;;;15.23;;
4375;SDS011;2202;50.866;12.750;2022-08-14T04:14:59;15.50;;;13.00;;
4375;SDS011;2202;50.866;12.750;2022-08-14T04:17:26;26.73;;;14.83;;
4375;SDS011;2202;50.866;12.750;2022-08-14T04:19:54;20.73;;;13.90;;
4375;SDS011;2202;50.866;12.750;2022-08-14T04:22:21;16.90;;;12.60;;
4375;SDS011;2202;50.866;12.750;2022-08-14T04:24:49;16.60;;;13.70;;
4375;SDS011;2202;50.866;12.750;2022-08-14T04:27:18;17.17;;;13.37;;
4375;SDS011;2202;50.866;12.750;2022-08-14T04:29:45;18.43;;;14.70;;
4375;SDS011;2202;50.866;12.750;2022-08-14T04:32:12;20.30;;;15.30;;
4375;SDS011;2202;50.866;12.750;2022-08-14T04:34:40;23.00;;;15.20;;
4375;SDS011;2202;50.866;12.750;2022-08-14T04:37:07;22.07;;;17.17;;
4375;SDS011;2202;50.866;12.750;2022-08-14T04:39:52;17.23;;;14.23;;
4375;SDS011;2202;50.866;12.750;2022-08-14T04:42:38;20.03;;;15.73;;
4375;SDS011;2202;50.866;12.750;2022-08-14T04:45:24;21.53;;;15.57;;
4375;SDS011;2202;50.866;12.750;2022-08-14T04:48:04;24.30;;;17.20;;
4375;SDS011;2202;50.866;12.750;2022-08-14T04:50:41;20.40;;;15.47;;
4375;SDS011;2202;50.866;12.750;2022-08-14T04:53:11;19.17;;;14.40;;
4375;SDS011;2202;50.866;12.750;2022-08-14T04:55:40;19.03;;;14.90;;
4375;SDS011;2202;50.866;12.750;2022-08-14T04:58:10;19.17;;;15.03;;
4375;SDS011;2202;50.866;12.750;2022-08-14T05:00:37;21.07;;;16.63;;
4375;SDS011;2202;50.866;12.750;2022-08-14T05:03:04;22.93;;;15.67;;
4375;SDS011;2202;50.866;12.750;2022-08-14T05:05:32;19.17;;;15.17;;
4375;SDS011;2202;50.866;12.750;2022-08-14T05:08:03;26.40;;;16.53;;
4375;SDS011;2202;50.866;12.750;2022-08-14T05:10:33;20.87;;;16.30;;
4375;SDS011;2202;50.866;12.750;2022-08-14T05:13:04;24.90;;;17.50;;
4375;SDS011;2202;50.866;12.750;2022-08-14T05:15:33;20.93;;;16.37;;
4375;SDS011;2202;50.866;12.750;2022-08-14T05:18:02;19.83;;;16.10;;
4375;SDS011;2202;50.866;12.750;2022-08-14T05:20:33;22.03;;;16.73;;
4375;SDS011;2202;50.866;12.750;2022-08-14T05:23:00;22.43;;;15.83;;
4375;SDS011;2202;50.866;12.750;2022-08-14T05:25:27;21.47;;;16.60;;
4375;SDS011;2202;50.866;12.750;2022-08-14T05:27:54;20.70;;;16.40;;
4375;SDS011;2202;50.866;12.750;2022-08-14T05:30:24;19.97;;;16.20;;
4375;SDS011;2202;50.866;12.750;2022-08-14T05:32:53;18.90;;;16.60;;
4375;SDS011;2202;50.866;12.750;2022-08-14T05:35:20;21.60;;;17.53;;
4375;SDS011;2202;50.866;12.750;2022-08-14T05:37:47;25.00;;;19.13;;
4375;SDS011;2202;50.866;12.750;2022-08-14T05:40:15;26.10;;;20.83;;
4375;SDS011;2202;50.866;12.750;2022-08-14T05:42:42;23.87;;;20.33;;
4375;SDS011;2202;50.866;12.750;2022-08-14T05:45:09;28.10;;;22.47;;
4375;SDS011;2202;50.866;12.750;2022-08-14T05:47:38;25.37;;;20.50;;
4375;SDS011;2202;50.866;12.750;2022-08-14T05:50:08;26.80;;;21.03;;
4375;SDS011;2202;50.866;12.750;2022-08-14T05:52:37;25.00;;;20.17;;
4375;SDS011;2202;50.866;12.750;2022-08-14T05:55:05;26.57;;;21.40;;
4375;SDS011;2202;50.866;12.750;2022-08-14T05:57:45;22.20;;;18.70;;
4375;SDS011;2202;50.866;12.750;2022-08-14T06:00:17;25.33;;;19.53;;
4375;SDS011;2202;50.866;12.750;2022-08-14T06:02:46;23.67;;;19.33;;
4375;SDS011;2202;50.866;12.750;2022-08-14T06:05:14;24.83;;;19.70;;
4375;SDS011;2202;50.866;12.750;2022-08-14T06:07:41;22.97;;;19.10;;
4375;SDS011;2202;50.866;12.750;2022-08-14T06:10:08;23.53;;;19.33;;
4375;SDS011;2202;50.866;12.750;2022-08-14T06:12:36;23.70;;;18.07;;
4375;SDS011;2202;50.866;12.750;2022-08-14T06:15:03;22.30;;;17.30;;
4375;SDS011;2202;50.866;12.750;2022-08-14T06:17:31;21.80;;;18.00;;
4375;SDS011;2202;50.866;12.750;2022-08-14T06:20:07;21.03;;;17.63;;
4375;SDS011;2202;50.866;12.750;2022-08-14T06:22:36;21.97;;;17.43;;
4375;SDS011;2202;50.866;12.750;2022-08-14T06:25:03;23.40;;;19.20;;
4375;SDS011;2202;50.866;12.750;2022-08-14T06:27:34;22.20;;;17.27;;
4375;SDS011;2202;50.866;12.750;2022-08-14T06:30:02;24.63;;;17.33;;
4375;SDS011;2202;50.866;12.750;2022-08-14T06:32:29;20.83;;;18.20;;
4375;SDS011;2202;50.866;12.750;2022-08-14T06:34:56;19.87;;;15.40;;
4375;SDS011;2202;50.866;12.750;2022-08-14T06:37:23;21.17;;;15.00;;
4375;SDS011;2202;50.866;12.750;2022-08-14T06:39:52;18.33;;;15.90;;
4375;SDS011;2202;50.866;12.750;2022-08-14T06:42:19;22.60;;;15.67;;
4375;SDS011;2202;50.866;12.750;2022-08-14T06:44:46;18.07;;;14.80;;
4375;SDS011;2202;50.866;12.750;2022-08-14T06:47:13;18.80;;;15.30;;
4375;SDS011;2202;50.866;12.750;2022-08-14T06:49:40;18.23;;;15.97;;
4375;SDS011;2202;50.866;12.750;2022-08-14T06:52:07;16.90;;;15.10;;
4375;SDS011;2202;50.866;12.750;2022-08-14T06:54:34;15.60;;;13.60;;
4375;SDS011;2202;50.866;12.750;2022-08-14T06:57:02;16.33;;;14.60;;
4375;SDS011;2202;50.866;12.750;2022-08-14T06:59:29;17.90;;;15.57;;
4375;SDS011;2202;50.866;12.750;2022-08-14T07:01:56;15.40;;;13.07;;
4375;SDS011;2202;50.866;12.750;2022-08-14T07:04:40;16.67;;;14.87;;
4375;SDS011;2202;50.866;12.750;2022-08-14T07:07:27;16.70;;;13.90;;
4375;SDS011;2202;50.866;12.750;2022-08-14T07:10:01;16.10;;;14.13;;
4375;SDS011;2202;50.866;12.750;2022-08-14T07:12:31;15.20;;;13.60;;
4375;SDS011;2202;50.866;12.750;2022-08-14T07:14:58;15.77;;;13.67;;
4375;SDS011;2202;50.866;12.750;2022-08-14T07:17:25;16.60;;;14.83;;
4375;SDS011;2202;50.866;12.750;2022-08-14T07:19:52;16.40;;;13.50;;
4375;SDS011;2202;50.866;12.750;2022-08-14T07:22:19;16.00;;;14.30;;
4375;SDS011;2202;50.866;12.750;2022-08-14T07:24:46;15.37;;;13.77;;
4375;SDS011;2202;50.866;12.750;2022-08-14T07:27:13;15.47;;;13.13;;
4375;SDS011;2202;50.866;12.750;2022-08-14T07:29:42;19.27;;;13.43;;
4375;SDS011;2202;50.866;12.750;2022-08-14T07:32:08;15.70;;;14.10;;
4375;SDS011;2202;50.866;12.750;2022-08-14T07:34:35;16.20;;;14.50;;
4375;SDS011;2202;50.866;12.750;2022-08-14T07:37:03;14.83;;;13.20;;
4375;SDS011;2202;50.866;12.750;2022-08-14T07:39:30;16.30;;;14.60;;
4375;SDS011;2202;50.866;12.750;2022-08-14T07:41:57;15.10;;;13.60;;
4375;SDS011;2202;50.866;12.750;2022-08-14T07:44:24;15.07;;;13.63;;
4375;SDS011;2202;50.866;12.750;2022-08-14T07:46:52;17.00;;;15.30;;
4375;SDS011;2202;50.866;12.750;2022-08-14T07:49:19;16.07;;;14.20;;
4375;SDS011;2202;50.866;12.750;2022-08-14T07:51:47;15.63;;;14.10;;
4375;SDS011;2202;50.866;12.750;2022-08-14T07:54:14;16.43;;;14.73;;
4375;SDS011;2202;50.866;12.750;2022-08-14T07:56:41;15.17;;;13.70;;
4375;SDS011;2202;50.866;12.750;2022-08-14T07:59:09;16.90;;;14.00;;
4375;SDS011;2202;50.866;12.750;2022-08-14T08:01:36;14.30;;;12.80;;
4375;SDS011;2202;50.866;12.750;2022-08-14T08:04:05;14.17;;;12.67;;
4375;SDS011;2202;50.866;12.750;2022-08-14T08:06:33;14.77;;;13.27;;
4375;SDS011;2202;50.866;12.750;2022-08-14T08:09:02;16.73;;;13.67;;
4375;SDS011;2202;50.866;12.750;2022-08-14T08:11:30;14.17;;;12.70;;
4375;SDS011;2202;50.866;12.750;2022-08-14T08:13:59;14.40;;;12.87;;
4375;SDS011;2202;50.866;12.750;2022-08-14T08:16:31;14.63;;;13.03;;
4375;SDS011;2202;50.866;12.750;2022-08-14T08:19:00;15.17;;;13.63;;
4375;SDS011;2202;50.866;12.750;2022-08-14T08:21:28;16.67;;;14.00;;
4375;SDS011;2202;50.866;12.750;2022-08-14T08:23:55;14.20;;;12.80;;
4375;SDS011;2202;50.866;12.750;2022-08-14T08:26:27;15.33;;;13.83;;
4375;SDS011;2202;50.866;12.750;2022-08-14T08:28:55;14.57;;;13.17;;
4375;SDS011;2202;50.866;12.750;2022-08-14T08:31:23;16.73;;;14.97;;
4375;SDS011;2202;50.866;12.750;2022-08-14T08:33:51;15.73;;;13.83;;
4375;SDS011;2202;50.866;12.750;2022-08-14T08:36:18;14.27;;;12.87;;
4375;SDS011;2202;50.866;12.750;2022-08-14T08:38:48;16.03;;;13.70;;
4375;SDS011;2202;50.866;12.750;2022-08-14T08:41:15;16.50;;;14.73;;
4375;SDS011;2202;50.866;12.750;2022-08-14T08:43:42;18.50;;;14.40;;
4375;SDS011;2202;50.866;12.750;2022-08-14T08:46:09;17.00;;;13.80;;
4375;SDS011;2202;50.866;12.750;2022-08-14T08:48:42;14.97;;;13.47;;
4375;SDS011;2202;50.866;12.750;2022-08-14T08:51:19;16.30;;;14.60;;
4375;SDS011;2202;50.866;12.750;2022-08-14T08:53:56;14.70;;;13.30;;
4375;SDS011;2202;50.866;12.750;2022-08-14T08:56:33;14.80;;;13.20;;
4375;SDS011;2202;50.866;12.750;2022-08-14T08:59:02;14.33;;;12.90;;
4375;SDS011;2202;50.866;12.750;2022-08-14T09:01:45;14.70;;;13.00;;
4375;SDS011;2202;50.866;12.750;2022-08-14T09:04:16;15.30;;;12.80;;
4375;SDS011;2202;50.866;12.750;2022-08-14T09:06:44;12.23;;;11.00;;
4375;SDS011;2202;50.866;12.750;2022-08-14T09:09:22;13.07;;;11.83;;
4375;SDS011;2202;50.866;12.750;2022-08-14T09:11:51;13.53;;;12.23;;
4375;SDS011;2202;50.866;12.750;2022-08-14T09:14:20;294.33;;;37.27;;
4375;SDS011;2202;50.866;12.750;2022-08-14T09:16:47;13.03;;;11.37;;
4375;SDS011;2202;50.866;12.750;2022-08-14T09:19:14;14.00;;;11.23;;
4375;SDS011;2202;50.866;12.750;2022-08-14T09:21:41;11.63;;;10.00;;
4375;SDS011;2202;50.866;12.750;2022-08-14T09:24:09;10.50;;;9.50;;
4375;SDS011;2202;50.866;12.750;2022-08-14T09:26:37;12.33;;;11.03;;
4375;SDS011;2202;50.866;12.750;2022-08-14T09:29:06;13.83;;;11.73;;
4375;SDS011;2202;50.866;12.750;2022-08-14T09:31:35;12.40;;;11.20;;
4375;SDS011;2202;50.866;12.750;2022-08-14T09:34:11;14.00;;;10.63;;
4375;SDS011;2202;50.866;12.750;2022-08-14T09:36:52;12.90;;;11.03;;
4375;SDS011;2202;50.866;12.750;2022-08-14T09:39:36;12.43;;;10.80;;
4375;SDS011;2202;50.866;12.750;2022-08-14T09:45:02;11.60;;;10.40;;
4375;SDS011;2202;50.866;12.750;2022-08-14T09:47:41;12.03;;;10.07;;
4375;SDS011;2202;50.866;12.750;2022-08-14T09:50:21;9.77;;;8.83;;
4375;SDS011;2202;50.866;12.750;2022-08-14T09:52:51;10.13;;;9.20;;
4375;SDS011;2202;50.866;12.750;2022-08-14T09:55:19;9.80;;;8.80;;
4375;SDS011;2202;50.866;12.750;2022-08-14T09:57:49;8.30;;;7.60;;
4375;SDS011;2202;50.866;12.750;2022-08-14T10:00:18;10.50;;;9.60;;
4375;SDS011;2202;50.866;12.750;2022-08-14T10:03:01;9.77;;;8.87;;
4375;SDS011;2202;50.866;12.750;2022-08-14T10:05:29;10.33;;;9.33;;
4375;SDS011;2202;50.866;12.750;2022-08-14T10:07:57;9.57;;;8.70;;
4375;SDS011;2202;50.866;12.750;2022-08-14T10:10:26;9.00;;;8.20;;
4375;SDS011;2202;50.866;12.750;2022-08-14T10:12:56;10.43;;;9.27;;
4375;SDS011;2202;50.866;12.750;2022-08-14T10:15:26;10.70;;;9.70;;
4375;SDS011;2202;50.866;12.750;2022-08-14T10:18:07;9.20;;;8.40;;
4375;SDS011;2202;50.866;12.750;2022-08-14T10:20:37;10.57;;;8.73;;
4375;SDS011;2202;50.866;12.750;2022-08-14T10:23:13;10.20;;;8.20;;
4375;SDS011;2202;50.866;12.750;2022-08-14T10:25:43;9.70;;;8.80;;
4375;SDS011;2202;50.866;12.750;2022-08-14T10:28:16;9.83;;;8.93;;
4375;SDS011;2202;50.866;12.750;2022-08-14T10:30:45;10.23;;;9.17;;
4375;SDS011;2202;50.866;12.750;2022-08-14T10:33:24;8.87;;;8.00;;
4375;SDS011;2202;50.866;12.750;2022-08-14T10:35:54;9.03;;;8.23;;
4375;SDS011;2202;50.866;12.750;2022-08-14T10:38:25;10.07;;;9.07;;
4375;SDS011;2202;50.866;12.750;2022-08-14T10:40:53;8.40;;;7.60;;
4375;SDS011;2202;50.866;12.750;2022-08-14T10:43:23;9.00;;;8.20;;
4375;SDS011;2202;50.866;12.750;2022-08-14T10:45:51;9.07;;;8.27;;
4375;SDS011;2202;50.866;12.750;2022-08-14T10:48:20;9.10;;;8.30;;
4375;SDS011;2202;50.866;12.750;2022-08-14T10:50:47;8.97;;;8.17;;
4375;SDS011;2202;50.866;12.750;2022-08-14T10:53:25;9.40;;;8.60;;
4375;SDS011;2202;50.866;12.750;2022-08-14T10:55:56;7.87;;;7.17;;
4375;SDS011;2202;50.866;12.750;2022-08-14T10:58:28;7.50;;;6.80;;
4375;SDS011;2202;50.866;12.750;2022-08-14T11:00:57;8.40;;;7.60;;
4375;SDS011;2202;50.866;12.750;2022-08-14T11:03:39;9.03;;;8.23;;
4375;SDS011;2202;50.866;12.750;2022-08-14T11:06:14;8.90;;;8.10;;
4375;SDS011;2202;50.866;12.750;2022-08-14T11:08:43;8.30;;;7.50;;
4375;SDS011;2202;50.866;12.750;2022-08-14T11:11:11;9.13;;;8.43;;
4375;SDS011;2202;50.866;12.750;2022-08-14T11:13:41;10.73;;;7.70;;
4375;SDS011;2202;50.866;12.750;2022-08-14T11:16:10;8.00;;;7.30;;
4375;SDS011;2202;50.866;12.750;2022-08-14T11:18:38;9.30;;;8.40;;
4375;SDS011;2202;50.866;12.750;2022-08-14T11:21:08;8.43;;;7.73;;
4375;SDS011;2202;50.866;12.750;2022-08-14T11:23:41;9.73;;;8.83;;
4375;SDS011;2202;50.866;12.750;2022-08-14T11:26:10;9.00;;;7.83;;
4375;SDS011;2202;50.866;12.750;2022-08-14T11:28:38;9.27;;;8.37;;
4375;SDS011;2202;50.866;12.750;2022-08-14T11:31:09;9.23;;;8.33;;
4375;SDS011;2202;50.866;12.750;2022-08-14T11:33:38;8.90;;;8.00;;
4375;SDS011;2202;50.866;12.750;2022-08-14T11:36:07;9.03;;;8.13;;
4375;SDS011;2202;50.866;12.750;2022-08-14T11:38:37;8.17;;;7.47;;
4375;SDS011;2202;50.866;12.750;2022-08-14T11:41:05;9.10;;;7.80;;
4375;SDS011;2202;50.866;12.750;2022-08-14T11:43:37;11.50;;;7.80;;
4375;SDS011;2202;50.866;12.750;2022-08-14T11:46:06;8.20;;;7.40;;
4375;SDS011;2202;50.866;12.750;2022-08-14T11:48:43;8.87;;;7.97;;
4375;SDS011;2202;50.866;12.750;2022-08-14T11:51:11;8.43;;;7.53;;
4375;SDS011;2202;50.866;12.750;2022-08-14T11:53:48;9.73;;;7.53;;
4375;SDS011;2202;50.866;12.750;2022-08-14T11:56:17;9.20;;;8.30;;
4375;SDS011;2202;50.866;12.750;2022-08-14T11:58:44;7.83;;;7.03;;
4375;SDS011;2202;50.866;12.750;2022-08-14T12:01:22;7.93;;;7.23;;
4375;SDS011;2202;50.866;12.750;2022-08-14T12:03:52;7.83;;;7.13;;
4375;SDS011;2202;50.866;12.750;2022-08-14T12:06:23;8.83;;;8.00;;
4375;SDS011;2202;50.866;12.750;2022-08-14T12:08:50;8.80;;;7.43;;
4375;SDS011;2202;50.866;12.750;2022-08-14T12:11:18;8.37;;;7.57;;
4375;SDS011;2202;50.866;12.750;2022-08-14T12:13:46;7.77;;;7.13;;
4375;SDS011;2202;50.866;12.750;2022-08-14T12:16:13;7.47;;;6.77;;
4375;SDS011;2202;50.866;12.750;2022-08-14T12:18:43;8.30;;;7.60;;
4375;SDS011;2202;50.866;12.750;2022-08-14T12:21:14;7.90;;;7.20;;
4375;SDS011;2202;50.866;12.750;2022-08-14T12:23:43;8.20;;;7.47;;
4375;SDS011;2202;50.866;12.750;2022-08-14T12:26:12;7.87;;;7.17;;
4375;SDS011;2202;50.866;12.750;2022-08-14T12:28:42;8.00;;;7.20;;
4375;SDS011;2202;50.866;12.750;2022-08-14T12:31:13;7.90;;;7.20;;
4375;SDS011;2202;50.866;12.750;2022-08-14T12:33:55;8.00;;;7.23;;
4375;SDS011;2202;50.866;12.750;2022-08-14T12:36:23;9.13;;;6.67;;
4375;SDS011;2202;50.866;12.750;2022-08-14T12:38:55;7.90;;;7.30;;
4375;SDS011;2202;50.866;12.750;2022-08-14T12:41:23;8.23;;;7.43;;
4375;SDS011;2202;50.866;12.750;2022-08-14T12:43:52;7.20;;;6.53;;
4375;SDS011;2202;50.866;12.750;2022-08-14T12:46:24;9.27;;;8.33;;
4375;SDS011;2202;50.866;12.750;2022-08-14T12:48:56;8.00;;;7.30;;
4375;SDS011;2202;50.866;12.750;2022-08-14T12:51:25;8.57;;;7.80;;
4375;SDS011;2202;50.866;12.750;2022-08-14T12:53:53;8.43;;;7.63;;
4375;SDS011;2202;50.866;12.750;2022-08-14T12:56:21;9.50;;;8.30;;
4375;SDS011;2202;50.866;12.750;2022-08-14T12:58:51;8.47;;;7.40;;
4375;SDS011;2202;50.866;12.750;2022-08-14T13:01:20;8.20;;;7.40;;
4375;SDS011;2202;50.866;12.750;2022-08-14T13:03:48;7.60;;;7.00;;
4375;SDS011;2202;50.866;12.750;2022-08-14T13:06:18;8.50;;;7.70;;
4375;SDS011;2202;50.866;12.750;2022-08-14T13:08:49;8.90;;;8.00;;
4375;SDS011;2202;50.866;12.750;2022-08-14T13:11:17;8.50;;;7.70;;
4375;SDS011;2202;50.866;12.750;2022-08-14T13:13:45;8.33;;;7.50;;
4375;SDS011;2202;50.866;12.750;2022-08-14T13:16:12;10.80;;;8.23;;
4375;SDS011;2202;50.866;12.750;2022-08-14T13:18:40;8.13;;;7.03;;
4375;SDS011;2202;50.866;12.750;2022-08-14T13:21:10;8.00;;;7.27;;
4375;SDS011;2202;50.866;12.750;2022-08-14T13:23:41;7.70;;;7.00;;
4375;SDS011;2202;50.866;12.750;2022-08-14T13:26:09;7.30;;;6.70;;
4375;SDS011;2202;50.866;12.750;2022-08-14T13:28:37;8.43;;;7.53;;
4375;SDS011;2202;50.866;12.750;2022-08-14T13:31:07;7.90;;;7.20;;
4375;SDS011;2202;50.866;12.750;2022-08-14T13:33:38;8.33;;;7.63;;
4375;SDS011;2202;50.866;12.750;2022-08-14T13:36:05;9.30;;;8.50;;
4375;SDS011;2202;50.866;12.750;2022-08-14T13:38:33;8.23;;;7.53;;
4375;SDS011;2202;50.866;12.750;2022-08-14T13:41:02;9.03;;;8.33;;
4375;SDS011;2202;50.866;12.750;2022-08-14T13:43:30;8.20;;;7.50;;
4375;SDS011;2202;50.866;12.750;2022-08-14T13:45:57;10.90;;;8.27;;
4375;SDS011;2202;50.866;12.750;2022-08-14T13:48:24;9.50;;;8.70;;
4375;SDS011;2202;50.866;12.750;2022-08-14T13:50:52;9.70;;;8.77;;
4375;SDS011;2202;50.866;12.750;2022-08-14T13:53:21;9.17;;;8.20;;
4375;SDS011;2202;50.866;12.750;2022-08-14T13:55:49;12.43;;;9.17;;
4375;SDS011;2202;50.866;12.750;2022-08-14T13:58:19;9.40;;;8.50;;
4375;SDS011;2202;50.866;12.750;2022-08-14T14:00:49;10.70;;;8.73;;
4375;SDS011;2202;50.866;12.750;2022-08-14T14:03:17;10.70;;;9.70;;
4375;SDS011;2202;50.866;12.750;2022-08-14T14:05:44;10.50;;;9.60;;
4375;SDS011;2202;50.866;12.750;2022-08-14T14:08:16;9.80;;;8.50;;
4375;SDS011;2202;50.866;12.750;2022-08-14T14:10:46;17.00;;;9.57;;
4375;SDS011;2202;50.866;12.750;2022-08-14T14:13:14;10.37;;;9.40;;
4375;SDS011;2202;50.866;12.750;2022-08-14T14:15:43;9.07;;;8.20;;
4375;SDS011;2202;50.866;12.750;2022-08-14T14:18:11;10.20;;;9.30;;
4375;SDS011;2202;50.866;12.750;2022-08-14T14:20:42;10.10;;;9.20;;
4375;SDS011;2202;50.866;12.750;2022-08-14T14:23:11;9.97;;;9.07;;
4375;SDS011;2202;50.866;12.750;2022-08-14T14:25:40;9.47;;;8.67;;
4375;SDS011;2202;50.866;12.750;2022-08-14T14:28:12;9.90;;;9.00;;
4375;SDS011;2202;50.866;12.750;2022-08-14T14:30:44;10.17;;;9.20;;
4375;SDS011;2202;50.866;12.750;2022-08-14T14:33:12;8.57;;;7.77;;
4375;SDS011;2202;50.866;12.750;2022-08-14T14:35:40;10.00;;;9.07;;
4375;SDS011;2202;50.866;12.750;2022-08-14T14:38:12;12.23;;;9.07;;
4375;SDS011;2202;50.866;12.750;2022-08-14T14:40:41;9.57;;;8.77;;
4375;SDS011;2202;50.866;12.750;2022-08-14T14:43:12;11.43;;;8.87;;
4375;SDS011;2202;50.866;12.750;2022-08-14T14:45:41;9.90;;;9.03;;
4375;SDS011;2202;50.866;12.750;2022-08-14T14:48:13;12.03;;;9.30;;
4375;SDS011;2202;50.866;12.750;2022-08-14T14:50:39;8.40;;;7.70;;
4375;SDS011;2202;50.866;12.750;2022-08-14T14:53:07;10.40;;;9.47;;
4375;SDS011;2202;50.866;12.750;2022-08-14T14:55:35;9.50;;;8.50;;
4375;SDS011;2202;50.866;12.750;2022-08-14T14:58:06;10.67;;;9.37;;
4375;SDS011;2202;50.866;12.750;2022-08-14T15:00:35;10.73;;;9.80;;